Cenka — TCTG5 — position and weather

sailwx.info

Track history (hours):
 
Tides and Currents Weather Stations Pressure Air Temp Water Temp Dewpoint Dewpoint Depression Visibility Wind Speed Wind Dir Waves Ship Positions

Cenka

Last reported at 2016-Jul-30 04:27 UTC. Time now 2016-Jul-30 07:21 UTC.
Position N 43°44' E 030°32'.

Length 150 m; draft 4 m.

Type: Passenger vessel. MMSI: 271002610.

Date/timePositionNaut miles runAvg speedWind from/ knotsBaromVisibWave heightAir tempDewpointWater temp
2016-Jul-30 04:27N 43°44' E 030°32'  
2016-Jul-27 15:32N 44°40' E 031°08'1110.2
2016-Jul-27 14:25N 44°51' E 031°07'910.1
2016-Jul-27 13:33N 45°00' E 031°05'54 9.9
2016-Jul-27 08:05N 45°54' E 030°55'8 9.8
2016-Jul-27 07:17N 46°01' E 030°51'7 9.6
2016-Jul-27 06:33N 46°08' E 030°49'10 9.6
2016-Jul-27 05:30N 46°17' E 030°44'5 0.4
2016-Jul-26 19:18N 46°21' E 030°39'0 0.0
2016-Jul-26 18:34N 46°21' E 030°39'  
Track history (hours):
 
Tides and Currents Weather Stations Pressure Air Temp Water Temp Dewpoint Dewpoint Depression Visibility Wind Speed Wind Dir Waves Ship Positions

Cenka

Last reported at 2016-Jul-30 04:27 UTC. Time now 2016-Jul-30 07:21 UTC.
Position N 43°44' E 030°32'.

Length 150 m; draft 4 m.

Type: Passenger vessel. MMSI: 271002610.

Date/timePositionNaut miles runAvg speedWind from/ knotsBaromVisibWave heightAir tempDewpointWater temp
2016-Jul-30 04:27N 43°44' E 030°32'  
2016-Jul-27 15:32N 44°40' E 031°08'1110.2
2016-Jul-27 14:25N 44°51' E 031°07'910.1
2016-Jul-27 13:33N 45°00' E 031°05'54 9.9
2016-Jul-27 08:05N 45°54' E 030°55'8 9.8
2016-Jul-27 07:17N 46°01' E 030°51'7 9.6
2016-Jul-27 06:33N 46°08' E 030°49'10 9.6
2016-Jul-27 05:30N 46°17' E 030°44'5 0.4
2016-Jul-26 19:18N 46°21' E 030°39'0 0.0
2016-Jul-26 18:34N 46°21' E 030°39'  

Dump ship's entire track history